Estación Meteorológica Peña el Pijo (Robertgarden) [ 11/17/17 23:51:42 CET ]

Fecha Hora Presion(HPa) Temp (°C) Humedad % Rocio (°C) Viento ( m/s) Direccion Lluvia 1Hora(mm) Lluvia 24H(mm) LLuvia Total(mm)
2017-Sep-16 01:01:40 1005.800 14.2 71 9.0         1457.65
2017-Sep-16 02:01:28 1005.800 13.4 75 9.0         1457.65
2017-Sep-16 03:01:36 1005.900 13.5 76 9.3         1457.65
2017-Sep-16 04:01:40 1005.500 13.4 78 9.6         1457.65
2017-Sep-16 05:01:36 1005.300 12.9 79 9.3         1457.65
2017-Sep-16 06:01:38 1005.000 12.3 81 9.1         1457.65
2017-Sep-16 07:01:33 1005.200 11.9 82 8.9         1457.65
2017-Sep-16 08:01:43 1005.500 11.4 78 7.7         1457.65
2017-Sep-16 09:01:57 1006.100 12.2 76 8.1         1457.65
2017-Sep-16 10:01:37 1006.300 16.5 67 10.4         1457.65
2017-Sep-16 11:01:34 1006.300 20.4 51 9.9         1457.65
2017-Sep-16 12:01:34 1006.500 22.8 31 4.8         1457.65
2017-Sep-16 13:01:51 1006.100 23.9 27 3.6         1457.65
2017-Sep-16 14:01:49 1006.000 23.3 24 1.4         1457.65
2017-Sep-16 15:01:47 1005.800 23.9 21 0.2 1.4 NNW     1457.65
2017-Sep-16 16:01:47 1006.000 24.1 21 0.4 0.3 WNW     1457.65
2017-Sep-16 17:02:02 1006.200 24.4 20 0.0 1.8 WSW     1457.65
2017-Sep-16 18:01:46 1006.300 23.1 22 0.1         1457.65
2017-Sep-16 19:01:55 1006.900 19.2 25 -1.5         1457.65
2017-Sep-16 20:01:34 1007.700 17.6 26 -2.3         1457.65
2017-Sep-16 21:01:54 1008.500 13.4 36 -1.5         1457.65
2017-Sep-16 22:01:44 1009.600 11.1 43 -1.1         1457.65
2017-Sep-16 23:01:45 1010.000 10.3 44 -1.5         1457.65

Temperatura Máxima:24°    Temperatura Mínima:10°
Presión Máxima:1010.000 Hpa    Presión Mínima:1005.000 Hpa


Volver